sensor_id;sensor_type;location;lat;lon;timestamp;pressure;altitude;pressure_sealevel;temperature;humidity
77161;BME280;66135;0.000;0.000;2023-07-30T00:01:06;100836.34;;;22.96;68.20
77161;BME280;66135;0.000;0.000;2023-07-30T00:03:32;100838.44;;;22.94;68.30
77161;BME280;66135;0.000;0.000;2023-07-30T00:05:57;100840.97;;;22.96;68.14
77161;BME280;66135;0.000;0.000;2023-07-30T00:08:23;100836.53;;;22.95;68.08
77161;BME280;66135;0.000;0.000;2023-07-30T00:10:49;100838.25;;;22.96;68.01
77161;BME280;66135;0.000;0.000;2023-07-30T00:13:14;100841.19;;;22.94;68.09
77161;BME280;66135;0.000;0.000;2023-07-30T00:15:40;100828.34;;;22.95;67.95
77161;BME280;66135;0.000;0.000;2023-07-30T00:18:05;100836.75;;;22.93;67.82
77161;BME280;66135;0.000;0.000;2023-07-30T00:20:31;100826.03;;;22.92;68.14
77161;BME280;66135;0.000;0.000;2023-07-30T00:22:56;100828.56;;;22.93;68.33
77161;BME280;66135;0.000;0.000;2023-07-30T00:25:22;100828.75;;;22.92;67.88
77161;BME280;66135;0.000;0.000;2023-07-30T00:27:47;100823.09;;;22.93;67.78
77161;BME280;66135;0.000;0.000;2023-07-30T00:30:12;100834.44;;;22.90;67.91
77161;BME280;66135;0.000;0.000;2023-07-30T00:32:38;100835.47;;;22.89;67.79
77161;BME280;66135;0.000;0.000;2023-07-30T00:35:09;100840.13;;;22.89;68.01
77161;BME280;66135;0.000;0.000;2023-07-30T00:37:34;100835.28;;;22.91;67.96
77161;BME280;66135;0.000;0.000;2023-07-30T00:39:59;100845.38;;;22.90;67.95
77161;BME280;66135;0.000;0.000;2023-07-30T00:42:25;100846.41;;;22.89;67.72
77161;BME280;66135;0.000;0.000;2023-07-30T00:44:50;100838.19;;;22.89;67.70
77161;BME280;66135;0.000;0.000;2023-07-30T00:47:15;100835.47;;;22.89;67.81
77161;BME280;66135;0.000;0.000;2023-07-30T00:49:41;100832.13;;;22.87;67.55
77161;BME280;66135;0.000;0.000;2023-07-30T00:52:06;100844.72;;;22.88;67.44
77161;BME280;66135;0.000;0.000;2023-07-30T00:54:33;100845.56;;;22.89;67.68
77161;BME280;66135;0.000;0.000;2023-07-30T00:56:58;100846.81;;;22.86;67.85
77161;BME280;66135;0.000;0.000;2023-07-30T00:59:24;100851.44;;;22.86;67.67
77161;BME280;66135;0.000;0.000;2023-07-30T01:01:50;100850.63;;;22.85;67.82
77161;BME280;66135;0.000;0.000;2023-07-30T01:04:16;100851.63;;;22.84;67.51
77161;BME280;66135;0.000;0.000;2023-07-30T01:06:42;100854.59;;;22.83;67.75
77161;BME280;66135;0.000;0.000;2023-07-30T01:09:07;100850.19;;;22.82;67.38
77161;BME280;66135;0.000;0.000;2023-07-30T01:11:33;100853.72;;;22.82;67.66
77161;BME280;66135;0.000;0.000;2023-07-30T01:13:59;100847.44;;;22.82;67.59
77161;BME280;66135;0.000;0.000;2023-07-30T01:16:25;100866.56;;;22.82;67.84
77161;BME280;66135;0.000;0.000;2023-07-30T01:18:51;100870.13;;;22.82;67.29
77161;BME280;66135;0.000;0.000;2023-07-30T01:21:16;100866.56;;;22.82;67.73
77161;BME280;66135;0.000;0.000;2023-07-30T01:23:41;100869.50;;;22.80;67.64
77161;BME280;66135;0.000;0.000;2023-07-30T01:26:19;100863.84;;;22.82;67.43
77161;BME280;66135;0.000;0.000;2023-07-30T01:28:49;100877.72;;;22.80;67.28
77161;BME280;66135;0.000;0.000;2023-07-30T01:31:18;100872.25;;;22.80;67.49
77161;BME280;66135;0.000;0.000;2023-07-30T01:33:47;100873.91;;;22.81;67.47
77161;BME280;66135;0.000;0.000;2023-07-30T01:36:15;100877.72;;;22.80;67.43
77161;BME280;66135;0.000;0.000;2023-07-30T01:38:43;100882.31;;;22.80;67.25
77161;BME280;66135;0.000;0.000;2023-07-30T01:41:09;100888.81;;;22.79;67.46
77161;BME280;66135;0.000;0.000;2023-07-30T01:43:35;100885.25;;;22.78;67.43
77161;BME280;66135;0.000;0.000;2023-07-30T01:46:00;100883.16;;;22.80;67.14
77161;BME280;66135;0.000;0.000;2023-07-30T01:48:26;100887.78;;;22.80;67.12
77161;BME280;66135;0.000;0.000;2023-07-30T01:50:52;100878.72;;;22.79;67.24
77161;BME280;66135;0.000;0.000;2023-07-30T01:53:17;100887.78;;;22.80;67.44
77161;BME280;66135;0.000;0.000;2023-07-30T01:55:43;100891.75;;;22.77;67.35
77161;BME280;66135;0.000;0.000;2023-07-30T01:58:14;100881.88;;;22.76;67.11
77161;BME280;66135;0.000;0.000;2023-07-30T02:00:40;100897.22;;;22.77;67.34
77161;BME280;66135;0.000;0.000;2023-07-30T02:03:05;100883.56;;;22.77;67.29
77161;BME280;66135;0.000;0.000;2023-07-30T02:05:31;100890.72;;;22.78;67.18
77161;BME280;66135;0.000;0.000;2023-07-30T02:07:58;100895.53;;;22.76;67.59
77161;BME280;66135;0.000;0.000;2023-07-30T02:10:26;100882.91;;;22.75;67.17
77161;BME280;66135;0.000;0.000;2023-07-30T02:12:51;100883.13;;;22.74;66.91
77161;BME280;66135;0.000;0.000;2023-07-30T02:15:17;100890.50;;;22.73;66.88
77161;BME280;66135;0.000;0.000;2023-07-30T02:17:42;100878.28;;;22.76;67.15
77161;BME280;66135;0.000;0.000;2023-07-30T02:20:08;100877.66;;;22.74;67.25
77161;BME280;66135;0.000;0.000;2023-07-30T02:22:34;100876.84;;;22.73;67.09
77161;BME280;66135;0.000;0.000;2023-07-30T02:24:59;100874.09;;;22.73;66.96
77161;BME280;66135;0.000;0.000;2023-07-30T02:27:24;100866.09;;;22.72;67.37
77161;BME280;66135;0.000;0.000;2023-07-30T02:29:50;100876.19;;;22.71;67.27
77161;BME280;66135;0.000;0.000;2023-07-30T02:32:16;100876.19;;;22.71;67.21
77161;BME280;66135;0.000;0.000;2023-07-30T02:34:41;100885.84;;;22.74;66.75
77161;BME280;66135;0.000;0.000;2023-07-30T02:37:07;100877.00;;;22.72;66.85
77161;BME280;66135;0.000;0.000;2023-07-30T02:39:32;100874.09;;;22.73;66.81
77161;BME280;66135;0.000;0.000;2023-07-30T02:41:58;100875.34;;;22.71;66.78
77161;BME280;66135;0.000;0.000;2023-07-30T02:44:23;100871.75;;;22.70;67.18
77161;BME280;66135;0.000;0.000;2023-07-30T02:46:48;100875.34;;;22.71;66.83
77161;BME280;66135;0.000;0.000;2023-07-30T02:49:14;100869.03;;;22.70;67.15
77161;BME280;66135;0.000;0.000;2023-07-30T02:51:39;100875.56;;;22.69;67.15
77161;BME280;66135;0.000;0.000;2023-07-30T02:54:05;100884.81;;;22.68;67.12
77161;BME280;66135;0.000;0.000;2023-07-30T02:56:31;100881.22;;;22.68;66.78
77161;BME280;66135;0.000;0.000;2023-07-30T02:58:58;100875.75;;;22.68;66.77
77161;BME280;66135;0.000;0.000;2023-07-30T03:01:23;100888.34;;;22.69;67.01
77161;BME280;66135;0.000;0.000;2023-07-30T03:03:49;100887.72;;;22.67;66.74
77161;BME280;66135;0.000;0.000;2023-07-30T03:06:14;100900.53;;;22.66;67.29
77161;BME280;66135;0.000;0.000;2023-07-30T03:08:44;100888.56;;;22.67;67.07
77161;BME280;66135;0.000;0.000;2023-07-30T03:11:10;100885.19;;;22.65;67.06
77161;BME280;66135;0.000;0.000;2023-07-30T03:13:35;100891.72;;;22.64;67.15
77161;BME280;66135;0.000;0.000;2023-07-30T03:16:00;100898.84;;;22.65;67.14
77161;BME280;66135;0.000;0.000;2023-07-30T03:18:26;100885.41;;;22.64;66.87
77161;BME280;66135;0.000;0.000;2023-07-30T03:20:52;100899.03;;;22.64;66.92
77161;BME280;66135;0.000;0.000;2023-07-30T03:23:22;100899.03;;;22.64;66.79
77161;BME280;66135;0.000;0.000;2023-07-30T03:25:47;100899.91;;;22.64;67.00
77161;BME280;66135;0.000;0.000;2023-07-30T03:28:12;100891.91;;;22.63;66.83
77161;BME280;66135;0.000;0.000;2023-07-30T03:30:38;100894.66;;;22.63;66.66
77161;BME280;66135;0.000;0.000;2023-07-30T03:33:03;100892.94;;;22.62;66.71
77161;BME280;66135;0.000;0.000;2023-07-30T03:35:28;100886.84;;;22.60;66.87
77161;BME280;66135;0.000;0.000;2023-07-30T03:37:54;100893.16;;;22.60;66.79
77161;BME280;66135;0.000;0.000;2023-07-30T03:40:19;100898.59;;;22.60;66.89
77161;BME280;66135;0.000;0.000;2023-07-30T03:42:45;100898.41;;;22.62;67.07
77161;BME280;66135;0.000;0.000;2023-07-30T03:45:10;100895.88;;;22.60;66.50
77161;BME280;66135;0.000;0.000;2023-07-30T03:47:35;100899.66;;;22.59;67.03
77161;BME280;66135;0.000;0.000;2023-07-30T03:50:01;100895.03;;;22.60;66.88
77161;BME280;66135;0.000;0.000;2023-07-30T03:52:26;100902.41;;;22.59;66.57
77161;BME280;66135;0.000;0.000;2023-07-30T03:54:52;100908.69;;;22.60;66.91
77161;BME280;66135;0.000;0.000;2023-07-30T03:57:17;100912.47;;;22.59;67.00
77161;BME280;66135;0.000;0.000;2023-07-30T03:59:42;100911.41;;;22.60;66.87
77161;BME280;66135;0.000;0.000;2023-07-30T04:02:08;100913.31;;;22.59;66.59
77161;BME280;66135;0.000;0.000;2023-07-30T04:04:33;100920.88;;;22.57;67.06
77161;BME280;66135;0.000;0.000;2023-07-30T04:06:58;100914.34;;;22.58;66.71
77161;BME280;66135;0.000;0.000;2023-07-30T04:09:24;100918.34;;;22.56;66.92
77161;BME280;66135;0.000;0.000;2023-07-30T04:11:49;100917.28;;;22.57;67.01
77161;BME280;66135;0.000;0.000;2023-07-30T04:14:14;100924.63;;;22.56;67.03
77161;BME280;66135;0.000;0.000;2023-07-30T04:16:40;100912.03;;;22.55;66.67
77161;BME280;66135;0.000;0.000;2023-07-30T04:19:05;100910.16;;;22.56;66.66
77161;BME280;66135;0.000;0.000;2023-07-30T04:21:31;100913.91;;;22.55;66.87
77161;BME280;66135;0.000;0.000;2023-07-30T04:23:56;100905.50;;;22.56;66.68
77161;BME280;66135;0.000;0.000;2023-07-30T04:26:21;100914.09;;;22.53;66.80
77161;BME280;66135;0.000;0.000;2023-07-30T04:28:47;100913.91;;;22.55;66.86
77161;BME280;66135;0.000;0.000;2023-07-30T04:31:12;100920.41;;;22.54;66.63
77161;BME280;66135;0.000;0.000;2023-07-30T04:33:37;100918.69;;;22.53;66.92
77161;BME280;66135;0.000;0.000;2023-07-30T04:36:03;100916.81;;;22.53;66.75
77161;BME280;66135;0.000;0.000;2023-07-30T04:38:28;100909.88;;;22.51;66.83
77161;BME280;66135;0.000;0.000;2023-07-30T04:40:57;100903.78;;;22.49;67.15
77161;BME280;66135;0.000;0.000;2023-07-30T04:43:23;100906.31;;;22.50;66.81
77161;BME280;66135;0.000;0.000;2023-07-30T04:45:48;100918.91;;;22.51;66.98
77161;BME280;66135;0.000;0.000;2023-07-30T04:48:14;100913.22;;;22.53;66.59
77161;BME280;66135;0.000;0.000;2023-07-30T04:50:39;100919.75;;;22.52;66.69
77161;BME280;66135;0.000;0.000;2023-07-30T04:53:07;100918.06;;;22.51;66.89
77161;BME280;66135;0.000;0.000;2023-07-30T04:55:33;100913.19;;;22.46;66.79
77161;BME280;66135;0.000;0.000;2023-07-30T04:57:58;100914.69;;;22.49;66.13
77161;BME280;66135;0.000;0.000;2023-07-30T05:00:23;100924.78;;;22.48;66.08
77161;BME280;66135;0.000;0.000;2023-07-30T05:02:49;100924.13;;;22.46;66.37
77161;BME280;66135;0.000;0.000;2023-07-30T05:05:14;100922.66;;;22.44;65.87
77161;BME280;66135;0.000;0.000;2023-07-30T05:07:39;100927.25;;;22.43;65.88
77161;BME280;66135;0.000;0.000;2023-07-30T05:10:05;100930.00;;;22.43;65.82
77161;BME280;66135;0.000;0.000;2023-07-30T05:12:33;100930.84;;;22.44;66.02
77161;BME280;66135;0.000;0.000;2023-07-30T05:14:58;100929.78;;;22.45;65.31
77161;BME280;66135;0.000;0.000;2023-07-30T05:17:23;100932.31;;;22.46;65.61
77161;BME280;66135;0.000;0.000;2023-07-30T05:19:49;100937.13;;;22.44;65.38
77161;BME280;66135;0.000;0.000;2023-07-30T05:22:14;100945.97;;;22.46;65.59
77161;BME280;66135;0.000;0.000;2023-07-30T05:24:39;100942.59;;;22.44;65.59
77161;BME280;66135;0.000;0.000;2023-07-30T05:27:05;100946.78;;;22.40;65.54
77161;BME280;66135;0.000;0.000;2023-07-30T05:29:30;100950.31;;;22.41;65.44
77161;BME280;66135;0.000;0.000;2023-07-30T05:31:56;100949.50;;;22.40;65.56
77161;BME280;66135;0.000;0.000;2023-07-30T05:34:21;100952.44;;;22.39;65.77
77161;BME280;66135;0.000;0.000;2023-07-30T05:36:46;100951.59;;;22.38;65.36
77161;BME280;66135;0.000;0.000;2023-07-30T05:39:12;100942.56;;;22.38;65.27
77161;BME280;66135;0.000;0.000;2023-07-30T05:41:37;100933.50;;;22.37;65.66
77161;BME280;66135;0.000;0.000;2023-07-30T05:44:03;100938.97;;;22.37;65.31
77161;BME280;66135;0.000;0.000;2023-07-30T05:46:28;100937.09;;;22.38;65.34
77161;BME280;66135;0.000;0.000;2023-07-30T05:48:53;100938.34;;;22.35;65.40
77161;BME280;66135;0.000;0.000;2023-07-30T05:51:19;100926.38;;;22.36;65.22
77161;BME280;66135;0.000;0.000;2023-07-30T05:53:44;100934.56;;;22.36;65.45
77161;BME280;66135;0.000;0.000;2023-07-30T05:56:09;100945.47;;;22.36;65.34
77161;BME280;66135;0.000;0.000;2023-07-30T05:58:38;100938.34;;;22.35;65.17
77161;BME280;66135;0.000;0.000;2023-07-30T06:01:03;100938.34;;;22.35;65.05
77161;BME280;66135;0.000;0.000;2023-07-30T06:03:28;100943.16;;;22.33;65.17
77161;BME280;66135;0.000;0.000;2023-07-30T06:05:54;100940.44;;;22.33;65.10
77161;BME280;66135;0.000;0.000;2023-07-30T06:08:19;100939.38;;;22.34;64.79
77161;BME280;66135;0.000;0.000;2023-07-30T06:10:45;100949.28;;;22.35;65.08
77161;BME280;66135;0.000;0.000;2023-07-30T06:13:12;100941.25;;;22.33;65.01
77161;BME280;66135;0.000;0.000;2023-07-30T06:15:37;100953.44;;;22.31;64.89
77161;BME280;66135;0.000;0.000;2023-07-30T06:18:03;100954.28;;;22.31;65.19
77161;BME280;66135;0.000;0.000;2023-07-30T06:20:29;100938.94;;;22.30;65.06
77161;BME280;66135;0.000;0.000;2023-07-30T06:22:54;100952.38;;;22.32;64.89
77161;BME280;66135;0.000;0.000;2023-07-30T06:25:20;100950.69;;;22.31;65.42
77161;BME280;66135;0.000;0.000;2023-07-30T06:27:45;100955.09;;;22.32;65.50
77161;BME280;66135;0.000;0.000;2023-07-30T06:30:11;100946.91;;;22.32;65.44
77161;BME280;66135;0.000;0.000;2023-07-30T06:32:36;100957.00;;;22.31;65.30
77161;BME280;66135;0.000;0.000;2023-07-30T06:35:02;100958.03;;;22.30;65.52
77161;BME280;66135;0.000;0.000;2023-07-30T06:37:28;100953.44;;;22.31;65.50
77161;BME280;66135;0.000;0.000;2023-07-30T06:39:54;100956.16;;;22.31;65.28
77161;BME280;66135;0.000;0.000;2023-07-30T06:42:19;100960.75;;;22.30;65.46
77161;BME280;66135;0.000;0.000;2023-07-30T06:44:44;100959.91;;;22.30;65.31
77161;BME280;66135;0.000;0.000;2023-07-30T06:47:10;100962.47;;;22.31;65.54
77161;BME280;66135;0.000;0.000;2023-07-30T06:49:36;100959.53;;;22.33;65.56
77161;BME280;66135;0.000;0.000;2023-07-30T06:52:02;100955.75;;;22.34;65.43
77161;BME280;66135;0.000;0.000;2023-07-30T06:54:30;100954.28;;;22.31;65.65
77161;BME280;66135;0.000;0.000;2023-07-30T06:56:55;100945.91;;;22.33;65.57
77161;BME280;66135;0.000;0.000;2023-07-30T06:59:21;100958.47;;;22.34;65.36
77161;BME280;66135;0.000;0.000;2023-07-30T07:01:46;100959.34;;;22.34;65.50
77161;BME280;66135;0.000;0.000;2023-07-30T07:04:12;100957.47;;;22.35;65.75
77161;BME280;66135;0.000;0.000;2023-07-30T07:06:37;100960.19;;;22.35;66.00
77161;BME280;66135;0.000;0.000;2023-07-30T07:09:03;100969.19;;;22.35;65.66
77161;BME280;66135;0.000;0.000;2023-07-30T07:11:28;100968.75;;;22.32;65.81
77161;BME280;66135;0.000;0.000;2023-07-30T07:14:10;100982.19;;;22.33;66.05
77161;BME280;66135;0.000;0.000;2023-07-30T07:16:39;100987.03;;;22.31;66.30
77161;BME280;66135;0.000;0.000;2023-07-30T07:19:05;100981.38;;;22.33;66.02
77161;BME280;66135;0.000;0.000;2023-07-30T07:21:30;100979.19;;;22.22;65.32
77161;BME280;66135;0.000;0.000;2023-07-30T07:23:56;100975.00;;;21.98;64.34
77161;BME280;66135;0.000;0.000;2023-07-30T07:26:22;100974.88;;;21.85;64.39
77161;BME280;66135;0.000;0.000;2023-07-30T07:28:47;100970.94;;;21.88;63.65
77161;BME280;66135;0.000;0.000;2023-07-30T07:31:13;100971.75;;;21.88;63.47
77161;BME280;66135;0.000;0.000;2023-07-30T07:33:39;100978.06;;;21.89;63.14
77161;BME280;66135;0.000;0.000;2023-07-30T07:36:06;100979.94;;;21.88;63.31
77161;BME280;66135;0.000;0.000;2023-07-30T07:38:32;100976.75;;;21.85;62.75
77161;BME280;66135;0.000;0.000;2023-07-30T07:40:58;100982.66;;;21.88;62.91
77161;BME280;66135;0.000;0.000;2023-07-30T07:43:24;100977.34;;;21.80;62.55
77161;BME280;66135;0.000;0.000;2023-07-30T07:45:50;100982.63;;;21.82;62.25
77161;BME280;66135;0.000;0.000;2023-07-30T07:48:15;100991.50;;;21.90;62.32
77161;BME280;66135;0.000;0.000;2023-07-30T07:50:41;100985.28;;;21.96;61.97
77161;BME280;66135;0.000;0.000;2023-07-30T07:53:06;100981.69;;;21.96;62.11
77161;BME280;66135;0.000;0.000;2023-07-30T07:55:32;100995.78;;;21.99;61.76
77161;BME280;66135;0.000;0.000;2023-07-30T07:57:58;100985.47;;;21.95;61.92
77161;BME280;66135;0.000;0.000;2023-07-30T08:00:23;100984.22;;;21.97;61.95
77161;BME280;66135;0.000;0.000;2023-07-30T08:02:48;100985.06;;;21.98;61.73
77161;BME280;66135;0.000;0.000;2023-07-30T08:05:14;100972.66;;;21.95;61.66
77161;BME280;66135;0.000;0.000;2023-07-30T08:07:39;100977.47;;;21.93;61.68
77161;BME280;66135;0.000;0.000;2023-07-30T08:10:05;100974.56;;;21.95;61.61
77161;BME280;66135;0.000;0.000;2023-07-30T08:12:32;100981.94;;;22.01;61.97
77161;BME280;66135;0.000;0.000;2023-07-30T08:14:58;100969.41;;;22.06;62.05
77161;BME280;66135;0.000;0.000;2023-07-30T08:17:24;100979.06;;;22.09;62.05
77161;BME280;66135;0.000;0.000;2023-07-30T08:19:50;100995.06;;;22.12;61.74
77161;BME280;66135;0.000;0.000;2023-07-30T08:22:15;100994.22;;;22.11;61.90
77161;BME280;66135;0.000;0.000;2023-07-30T08:24:40;101011.44;;;22.12;62.22
77161;BME280;66135;0.000;0.000;2023-07-30T08:27:06;101002.59;;;22.10;61.89
77161;BME280;66135;0.000;0.000;2023-07-30T08:29:31;101013.31;;;22.11;62.51
77161;BME280;66135;0.000;0.000;2023-07-30T08:31:57;101015.84;;;22.13;62.34
77161;BME280;66135;0.000;0.000;2023-07-30T08:34:22;100999.25;;;22.14;62.39
77161;BME280;66135;0.000;0.000;2023-07-30T08:36:48;100996.75;;;22.13;62.51
77161;BME280;66135;0.000;0.000;2023-07-30T08:39:14;101001.78;;;22.16;62.63
77161;BME280;66135;0.000;0.000;2023-07-30T08:41:39;101000.97;;;22.15;62.94
77161;BME280;66135;0.000;0.000;2023-07-30T08:44:06;101008.09;;;22.16;62.84
77161;BME280;66135;0.000;0.000;2023-07-30T08:46:31;101011.69;;;22.17;63.20
77161;BME280;66135;0.000;0.000;2023-07-30T08:48:57;100997.19;;;22.16;63.29
77161;BME280;66135;0.000;0.000;2023-07-30T08:51:22;100996.97;;;22.18;63.40
77161;BME280;66135;0.000;0.000;2023-07-30T08:53:49;100998.91;;;22.17;63.57
77161;BME280;66135;0.000;0.000;2023-07-30T08:56:16;100994.25;;;22.18;63.71
77161;BME280;66135;0.000;0.000;2023-07-30T08:58:42;100996.78;;;22.19;63.42
77161;BME280;66135;0.000;0.000;2023-07-30T09:01:09;101000.56;;;22.18;63.75
77161;BME280;66135;0.000;0.000;2023-07-30T09:03:38;100987.78;;;22.19;63.92
77161;BME280;66135;0.000;0.000;2023-07-30T09:06:04;100991.16;;;22.21;63.88
77161;BME280;66135;0.000;0.000;2023-07-30T09:08:30;100984.00;;;22.20;63.73
77161;BME280;66135;0.000;0.000;2023-07-30T09:10:57;100992.38;;;22.18;64.00
77161;BME280;66135;0.000;0.000;2023-07-30T09:13:36;100997.63;;;22.20;63.93
77161;BME280;66135;0.000;0.000;2023-07-30T09:16:08;100985.88;;;22.19;63.75
77161;BME280;66135;0.000;0.000;2023-07-30T09:18:54;100983.34;;;22.18;63.79
77161;BME280;66135;0.000;0.000;2023-07-30T09:21:29;100990.09;;;22.22;63.67
77161;BME280;66135;0.000;0.000;2023-07-30T09:23:55;100987.56;;;22.20;63.65
77161;BME280;66135;0.000;0.000;2023-07-30T09:26:20;100998.47;;;22.20;64.02
77161;BME280;66135;0.000;0.000;2023-07-30T09:28:46;100998.28;;;22.22;64.04
77161;BME280;66135;0.000;0.000;2023-07-30T09:31:12;101012.78;;;22.22;63.89
77161;BME280;66135;0.000;0.000;2023-07-30T09:33:41;100995.75;;;22.20;63.91
77161;BME280;66135;0.000;0.000;2023-07-30T09:36:07;101005.81;;;22.20;63.86
77161;BME280;66135;0.000;0.000;2023-07-30T09:38:39;101000.38;;;22.20;63.74
77161;BME280;66135;0.000;0.000;2023-07-30T09:41:04;100997.63;;;22.20;64.13
77161;BME280;66135;0.000;0.000;2023-07-30T09:43:33;101002.06;;;22.21;63.97
77161;BME280;66135;0.000;0.000;2023-07-30T09:46:06;101003.09;;;22.20;64.00
77161;BME280;66135;0.000;0.000;2023-07-30T09:48:32;101003.75;;;22.22;64.00
77161;BME280;66135;0.000;0.000;2023-07-30T09:51:02;100992.63;;;22.23;64.08
77161;BME280;66135;0.000;0.000;2023-07-30T09:53:33;101013.59;;;22.23;63.88
77161;BME280;66135;0.000;0.000;2023-07-30T09:56:04;101008.16;;;22.23;63.51
77161;BME280;66135;0.000;0.000;2023-07-30T09:58:31;101010.50;;;22.26;63.76
77161;BME280;66135;0.000;0.000;2023-07-30T10:01:00;101003.78;;;22.28;64.15
77161;BME280;66135;0.000;0.000;2023-07-30T10:03:26;101001.72;;;22.30;64.41
77161;BME280;66135;0.000;0.000;2023-07-30T10:05:55;100995.03;;;22.33;64.47
77161;BME280;66135;0.000;0.000;2023-07-30T10:08:27;101017.31;;;22.37;64.55
77161;BME280;66135;0.000;0.000;2023-07-30T10:10:54;101022.56;;;22.38;64.45
77161;BME280;66135;0.000;0.000;2023-07-30T10:13:21;101014.16;;;22.40;64.79
77161;BME280;66135;0.000;0.000;2023-07-30T10:15:47;101016.91;;;22.40;64.44
77161;BME280;66135;0.000;0.000;2023-07-30T10:18:13;101011.25;;;22.41;64.95
77161;BME280;66135;0.000;0.000;2023-07-30T10:20:39;101012.09;;;22.42;64.59
77161;BME280;66135;0.000;0.000;2023-07-30T10:23:04;101009.38;;;22.42;64.90
77161;BME280;66135;0.000;0.000;2023-07-30T10:28:08;101021.50;;;22.39;64.49
77161;BME280;66135;0.000;0.000;2023-07-30T10:30:33;101016.69;;;22.41;64.21
77161;BME280;66135;0.000;0.000;2023-07-30T10:33:03;101024.88;;;22.41;64.39
77161;BME280;66135;0.000;0.000;2023-07-30T10:35:43;101022.16;;;22.41;64.12
77161;BME280;66135;0.000;0.000;2023-07-30T10:38:16;101024.69;;;22.43;63.91
77161;BME280;66135;0.000;0.000;2023-07-30T10:40:41;101033.94;;;22.42;64.15
77161;BME280;66135;0.000;0.000;2023-07-30T10:43:16;101034.75;;;22.42;64.01
77161;BME280;66135;0.000;0.000;2023-07-30T10:45:49;101049.25;;;22.43;64.11
77161;BME280;66135;0.000;0.000;2023-07-30T10:48:16;101039.19;;;22.43;63.94
77161;BME280;66135;0.000;0.000;2023-07-30T10:50:41;101034.75;;;22.42;63.81
77161;BME280;66135;0.000;0.000;2023-07-30T10:53:08;101041.06;;;22.43;64.42
77161;BME280;66135;0.000;0.000;2023-07-30T10:55:33;101033.72;;;22.43;64.02
77161;BME280;66135;0.000;0.000;2023-07-30T10:57:59;101037.47;;;22.42;64.64
77161;BME280;66135;0.000;0.000;2023-07-30T11:00:25;101032.88;;;22.43;64.77
77161;BME280;66135;0.000;0.000;2023-07-30T11:02:54;101034.13;;;22.40;64.74
77161;BME280;66135;0.000;0.000;2023-07-30T11:05:20;101034.94;;;22.41;64.66
77161;BME280;66135;0.000;0.000;2023-07-30T11:07:49;101038.53;;;22.41;64.72
77161;BME280;66135;0.000;0.000;2023-07-30T11:10:15;101042.13;;;22.42;64.75
77161;BME280;66135;0.000;0.000;2023-07-30T11:12:40;101055.56;;;22.43;64.83
77161;BME280;66135;0.000;0.000;2023-07-30T11:15:06;101049.06;;;22.44;65.00
77161;BME280;66135;0.000;0.000;2023-07-30T11:17:32;101043.59;;;22.44;65.23
77161;BME280;66135;0.000;0.000;2023-07-30T11:19:57;101045.50;;;22.44;64.95
77161;BME280;66135;0.000;0.000;2023-07-30T11:22:32;101041.06;;;22.43;65.10
77161;BME280;66135;0.000;0.000;2023-07-30T11:24:58;101053.03;;;22.42;65.33
77161;BME280;66135;0.000;0.000;2023-07-30T11:27:24;101054.72;;;22.43;65.42
77161;BME280;66135;0.000;0.000;2023-07-30T11:29:58;101045.66;;;22.42;65.45
77161;BME280;66135;0.000;0.000;2023-07-30T11:32:26;101045.50;;;22.44;65.18
77161;BME280;66135;0.000;0.000;2023-07-30T11:34:53;101067.13;;;22.45;65.32
77161;BME280;66135;0.000;0.000;2023-07-30T11:37:20;101057.88;;;22.46;65.58
77161;BME280;66135;0.000;0.000;2023-07-30T11:39:46;101051.41;;;22.47;65.17
77161;BME280;66135;0.000;0.000;2023-07-30T11:42:12;101061.47;;;22.47;65.57
77161;BME280;66135;0.000;0.000;2023-07-30T11:44:39;101069.88;;;22.45;65.50
77161;BME280;66135;0.000;0.000;2023-07-30T11:47:06;101066.47;;;22.43;65.29
77161;BME280;66135;0.000;0.000;2023-07-30T11:49:31;101072.16;;;22.42;65.38
77161;BME280;66135;0.000;0.000;2023-07-30T11:52:10;101081.16;;;22.42;65.37
77161;BME280;66135;0.000;0.000;2023-07-30T11:54:36;101075.91;;;22.41;65.68
77161;BME280;66135;0.000;0.000;2023-07-30T11:57:01;101072.97;;;22.42;65.78
77161;BME280;66135;0.000;0.000;2023-07-30T11:59:26;101090.19;;;22.43;65.42
77161;BME280;66135;0.000;0.000;2023-07-30T12:01:52;101081.81;;;22.44;65.43
77161;BME280;66135;0.000;0.000;2023-07-30T12:04:20;101082.66;;;22.45;65.49
77161;BME280;66135;0.000;0.000;2023-07-30T12:06:47;101074.47;;;22.45;65.70
77161;BME280;66135;0.000;0.000;2023-07-30T12:09:18;101076.16;;;22.46;65.75
77161;BME280;66135;0.000;0.000;2023-07-30T12:11:50;101067.97;;;22.46;65.63
77161;BME280;66135;0.000;0.000;2023-07-30T12:14:16;101076.34;;;22.44;66.09
77161;BME280;66135;0.000;0.000;2023-07-30T12:16:41;101095.66;;;22.43;65.90
77161;BME280;66135;0.000;0.000;2023-07-30T12:19:07;101086.00;;;22.40;66.05
77161;BME280;66135;0.000;0.000;2023-07-30T12:21:33;101097.94;;;22.39;66.21
77161;BME280;66135;0.000;0.000;2023-07-30T12:23:59;101096.06;;;22.40;66.16
77161;BME280;66135;0.000;0.000;2023-07-30T12:26:24;101104.44;;;22.38;65.93
77161;BME280;66135;0.000;0.000;2023-07-30T12:28:49;101114.53;;;22.38;65.82
77161;BME280;66135;0.000;0.000;2023-07-30T12:31:15;101112.84;;;22.37;65.94
77161;BME280;66135;0.000;0.000;2023-07-30T12:33:40;101118.31;;;22.37;66.23
77161;BME280;66135;0.000;0.000;2023-07-30T12:36:05;101114.72;;;22.36;66.02
77161;BME280;66135;0.000;0.000;2023-07-30T12:38:31;101105.69;;;22.35;66.01
77161;BME280;66135;0.000;0.000;2023-07-30T12:40:56;101110.13;;;22.37;65.72
77161;BME280;66135;0.000;0.000;2023-07-30T12:43:21;101099.00;;;22.38;66.13
77161;BME280;66135;0.000;0.000;2023-07-30T12:45:47;101098.13;;;22.38;66.19
77161;BME280;66135;0.000;0.000;2023-07-30T12:48:13;101101.94;;;22.37;65.99
77161;BME280;66135;0.000;0.000;2023-07-30T12:50:38;101100.66;;;22.39;65.89
77161;BME280;66135;0.000;0.000;2023-07-30T12:53:04;101104.25;;;22.40;65.95
77161;BME280;66135;0.000;0.000;2023-07-30T12:55:29;101097.13;;;22.39;65.91
77161;BME280;66135;0.000;0.000;2023-07-30T12:57:54;101098.78;;;22.40;66.24